Yockey, Indiana
Current Conditions -  °F | °C
As of 11:53 AM on Thursday 27 Nov 2014 (Local Time) from KBMG Reporting Station
Overcast Overcast  
Wind Chill: 22°   Ceiling: 4700
Heat Index: 30°   Visibility: 8mi
Dew Point: 22°   Wind: 8mph
Humidity: 72%   Direction: 290°WNW
Pressure: 30.35"   Gusts: NA
Location:  38.7366°N, 86.4546°W
Report Text: KBMG 271653Z 29007KT 260V320 8SM FEW021 OVC047 M01/M06 A3035 RMK AO2 SLP286 T10111056
Loading
Personal Weather Stations






























Interactive Weather Map New forecast layout! Learn more

10-Day Weather Forecast

Advertisements
Track Severe Weather on mobile